Terminal Aerodrome Forecast
Issued by NWS

Home | Current Version | Previous Version | Text Only | Print | Product List | Glossary On
Versions: 1 2 3 4 5 6 7 8 9 10 11 12 13 14
000
FTUS45 KTFX 231121
TAFLWT
TAF
KLWT 231121Z 2312/2412 28004KT 1/4SM FG OVC001
      TEMPO 2312/2316 3SM -SN BR SCT003 BKN015
     FM231600 34005KT 3SM -SN BR BKN015
      TEMPO 2321/2401 3/4SM -SN BR OVC008=

USA.gov is the U.S. government's official web portal to all federal, state and local government web resources and services.